Airfield :







YOU CAN JOIN US ON...

 
LOGIN :

Register | Disclaimer

   EN    FR    IT 

 









Legend :    VFR   Marginal VFR   IFR   Intensive IFR   Very Intensive IFR
Visi :
Ceiling :
>= 8 km
>= 3000ft
5 to 8 km
1000 to 3000 ft
1500m to 5 km
500 to 1000 ft
800 to 1500m
200 to 500 ft
< 800m
< 200 ft
Symbols :   Thunderstorms  Fog  Heavy snow  Heavy precipitations  Wind > 20 kt






- Airport Elevation : 129 ft
- IATA code : YVP


CYVP - Kuujjuak

CURRENT METAR :
  • 250000Z 26012G20KT 15SM FEW060 BKN260 21/08 A2986 RMK SC1CI5 SLP114 DENSITY ALT 1000FT

EXPIRED METARs :
  • 242300Z 26009G22KT 220V280 15SM FEW054 BKN260 22/09 A2988 RMK SC2CI3 SLP120 DENSITY ALT 1000FT
  • 242200Z 28013G23KT 15SM FEW054 BKN260 23/09 A2989 RMK CU2CI3 SLP124 DENSITY ALT 1100FT
  • 242100Z 26013G22KT 15SM FEW053 SCT260 22/11 A2990 RMK CU2CI2 SLP128 DENSITY ALT 1100FT
  • 242000Z 27017G26KT 15SM FEW054 SCT260 23/10 A2990 RMK CU2CI1 SLP130 DENSITY ALT 1200FT

TAF TAF CYVP
Valid from the 25 at 00:00 until the 25 at 12:00 UTC


242340Z 2500/2512 26012G22KT P6SM FEW050 BKN260
BECMG 2505/2507 25015KT BKN080
FM251000 24015KT P6SM -SHRA BKN040 BKN160 RMK NXT FCST BY 250600Z
CZUL FIR / North America



MET'MAP, your aeronautical weather chart ! - Copyright ORBIFLY December 2007 - Disclaimer

ORBIFLY MET'MAP TEAM :

Programming & Development : Alexandra Zaïnal
Original concept : Baudouin d'Aumeries
Technical & hardware support : Manuel Goepfert
Assistance : Marc-Olivier Méhu




SOURCES & CREDITS :

   NOAA